Sieper, Louisiana
Current Conditions -  °F | °C
As of 8:54 PM on Friday 19 Dec 2014 (Local Time) from KBKB Reporting Station
Haze Haze  
Wind Chill: 50°   Ceiling: 300
Heat Index: 50°   Visibility: 6mi
Dew Point: 46°   Wind: 7mph
Humidity: 86%   Direction: NA
Pressure: 30.11"   Gusts: NA
Location:  31.21°N, 92.81°W
Report Text: KBKB 200254Z AUTO VRB06KT 6SM BR OVC003 10/08 A3011 RMK AO2 SLP468 60000 T01000078 51021 $
Loading
Personal Weather Stations






























Interactive Weather Map New forecast layout! Learn more

10-Day Weather Forecast

Advertisements
Track Severe Weather on mobile